Braunschweig Wolfsburg Airport EDVE

Flugplatz Daten

Name: Braunschweig Wolfsburg Airport

Ident: EDVE

Lat: 52,31919861

Long: 10,55609989

Platzhöhe: 295 ft

IataCode: BWE

City:

Metar

2021/10/16 18:20
EDVE 161820Z AUTO VRB01KT 9999 // OVC050/// 08/05 Q1021

Taf

Gewünschte Webcam nicht vorhanden? Dann fügen Sie eine hinzu. Sie wird dann so schnell wie möglich freigeschaltet
Url: Title: